createdAt,value
2019-02-06T00:09:32.031Z,101569.22
2019-02-06T00:11:58.887Z,101569.06
2019-02-06T00:14:25.506Z,101571.67
2019-02-06T00:16:52.244Z,101576.80
2019-02-06T00:19:19.346Z,101567.92
2019-02-06T00:21:46.151Z,101569.71
2019-02-06T00:24:12.884Z,101565.27
2019-02-06T00:26:39.448Z,101569.90
2019-02-06T00:29:06.335Z,101563.77
2019-02-06T00:31:33.264Z,101562.74
2019-02-06T00:34:00.167Z,101564.08
2019-02-06T00:36:27.169Z,101555.77
2019-02-06T00:38:54.075Z,101560.95
2019-02-06T00:41:20.712Z,101563.42
2019-02-06T00:43:47.646Z,101556.27
2019-02-06T09:36:07.073Z,101519.20
2019-02-06T09:38:34.204Z,101519.20
2019-02-06T09:41:01.349Z,101517.86
2019-02-06T09:43:28.730Z,101521.52
2019-02-06T09:45:57.106Z,101515.19
2019-02-06T09:48:24.422Z,101515.02
2019-02-06T09:50:51.526Z,101515.01
2019-02-06T09:53:18.610Z,101510.84
2019-02-06T09:55:45.709Z,101509.19
2019-02-06T09:58:12.804Z,101508.86
2019-02-06T10:00:39.888Z,101506.88
2019-02-06T10:06:09.645Z,101509.02
2019-02-06T10:08:36.758Z,101508.34
2019-02-06T10:11:04.249Z,101501.53
2019-02-06T10:13:31.309Z,101503.69
2019-02-06T10:15:58.381Z,101500.53
2019-02-06T10:18:25.396Z,101494.53
2019-02-06T10:20:52.445Z,101493.85
2019-02-06T10:23:19.591Z,101497.20
2019-02-06T10:25:46.618Z,101489.39
2019-02-06T10:28:13.664Z,101491.89
2019-02-06T10:30:51.056Z,101490.89
2019-02-06T10:33:19.091Z,101483.88
2019-02-06T10:35:46.451Z,101484.23
2019-02-06T10:38:13.561Z,101485.53
2019-02-06T10:40:40.644Z,101484.39
2019-02-06T10:43:07.656Z,101484.20
2019-02-06T10:45:35.081Z,101468.58
2019-02-06T10:48:02.140Z,101474.55
2019-02-06T10:50:31.577Z,101467.73
2019-02-06T10:52:58.607Z,101461.74
2019-02-06T10:55:25.658Z,101455.10
2019-02-06T10:57:52.688Z,101458.57
2019-02-06T11:00:25.351Z,101452.58
2019-02-06T11:02:52.765Z,101447.27
2019-02-06T11:05:19.780Z,101445.94
2019-02-06T11:07:47.937Z,101440.09
2019-02-06T11:10:15.146Z,101440.92
2019-02-06T11:12:42.197Z,101430.11
2019-02-06T11:15:09.256Z,101423.44
2019-02-06T11:17:36.285Z,101420.45
2019-02-06T11:20:06.974Z,101413.81
2019-02-06T11:22:34.010Z,101413.30
2019-02-06T11:25:01.046Z,101408.47
2019-02-06T11:27:28.035Z,101402.95
2019-02-06T11:29:55.112Z,101397.66
2019-02-06T11:32:22.143Z,101393.82
2019-02-06T11:34:49.165Z,101389.64
2019-02-06T11:37:16.212Z,101385.30
2019-02-06T11:39:43.533Z,101381.49
2019-02-06T11:42:10.556Z,101379.48
2019-02-06T11:44:37.730Z,101378.52
2019-02-06T11:47:05.877Z,101377.00
2019-02-06T11:49:36.896Z,101374.68
2019-02-06T11:52:03.995Z,101377.34
2019-02-06T11:54:31.017Z,101373.16
2019-02-06T11:56:58.239Z,101372.51
2019-02-06T11:59:25.270Z,101366.00
2019-02-06T12:01:53.082Z,101370.00
2019-02-06T12:04:20.108Z,101365.02
2019-02-06T12:06:47.158Z,101359.03
2019-02-06T12:09:14.282Z,101344.89
2019-02-06T12:11:41.305Z,101343.20
2019-02-06T12:14:08.357Z,101342.33
2019-02-06T12:16:35.724Z,101337.05
2019-02-06T12:19:02.759Z,101332.21
2019-02-06T12:21:29.907Z,101322.73
2019-02-06T12:23:56.948Z,101312.23
2019-02-06T12:26:23.998Z,101313.76
2019-02-06T12:28:51.073Z,101308.92
2019-02-06T12:31:18.093Z,101299.61
2019-02-06T12:33:45.126Z,101300.45
2019-02-06T12:36:12.304Z,101293.78
2019-02-06T12:38:39.335Z,101292.39
2019-02-06T12:41:06.370Z,101283.43
2019-02-06T12:43:34.515Z,101277.81
2019-02-06T12:46:01.532Z,101268.44
2019-02-06T12:48:28.580Z,101264.29
2019-02-06T12:50:55.652Z,101269.27
2019-02-06T12:53:22.676Z,101266.80
2019-02-06T12:55:50.302Z,101260.09
2019-02-06T12:58:17.786Z,101257.97
2019-02-06T13:00:44.817Z,101255.37
2019-02-06T13:03:11.846Z,101258.02
2019-02-06T13:09:38.732Z,101249.50
2019-02-06T13:12:06.129Z,101250.14
2019-02-06T13:14:34.983Z,101252.30
2019-02-06T13:17:02.034Z,101242.20
2019-02-06T13:19:29.113Z,101234.16
2019-02-06T13:21:56.230Z,101238.50
2019-02-06T13:24:23.251Z,101233.50
2019-02-06T13:26:50.287Z,101235.48
2019-02-06T13:29:17.716Z,101232.53
2019-02-06T13:31:44.732Z,101233.51
2019-02-06T13:34:11.777Z,101224.33
2019-02-06T13:36:38.807Z,101212.64
2019-02-06T13:39:08.968Z,101207.64
2019-02-06T13:41:36.008Z,101209.47
2019-02-06T13:44:03.113Z,101217.66
2019-02-06T13:46:30.146Z,101210.05
2019-02-06T13:48:57.201Z,101208.64
2019-02-06T13:51:26.065Z,101199.16
2019-02-06T13:53:53.093Z,101188.60
2019-02-06T13:56:20.143Z,101187.45
2019-02-06T13:58:47.183Z,101176.94
2019-02-06T14:01:25.101Z,101176.19
2019-02-06T14:03:43.149Z,101177.91
2019-02-06T14:06:11.391Z,101176.88
2019-02-06T14:08:38.729Z,101174.35
2019-02-06T14:11:05.766Z,101159.69
2019-02-06T14:13:32.790Z,101158.23
2019-02-06T14:15:59.820Z,101152.27
2019-02-06T14:18:26.863Z,101148.77
2019-02-06T14:20:53.891Z,101140.22
2019-02-06T14:23:31.357Z,101144.27
2019-02-06T14:26:15.738Z,101139.66
2019-02-06T14:29:39.105Z,101136.64
2019-02-06T14:32:33.951Z,101128.33
2019-02-06T14:35:55.285Z,101132.89
2019-02-06T14:39:04.437Z,101129.42
2019-02-06T14:41:54.452Z,101123.92
2019-02-06T14:44:56.377Z,101122.45
2019-02-06T14:47:52.277Z,101120.41
2019-02-06T14:51:00.321Z,101123.62
2019-02-06T14:53:49.847Z,101123.42
2019-02-06T14:57:07.151Z,101117.73
2019-02-06T15:00:12.622Z,101115.35
2019-02-06T15:03:26.871Z,101108.42
2019-02-06T15:06:19.456Z,101106.14
2019-02-06T15:09:22.322Z,101107.92
2019-02-06T15:12:07.506Z,101099.23
2019-02-06T15:15:37.729Z,101096.19
2019-02-06T15:18:44.780Z,101089.16
2019-02-06T15:21:46.435Z,101084.84
2019-02-06T15:24:46.033Z,101081.18
2019-02-06T15:27:43.819Z,101084.08
2019-02-06T15:30:57.708Z,101078.26
2019-02-06T15:34:01.296Z,101075.52
2019-02-06T15:36:54.422Z,101075.91
2019-02-06T15:39:44.684Z,101068.48
2019-02-06T15:42:30.247Z,101066.77
2019-02-06T15:45:39.742Z,101065.70
2019-02-06T15:48:39.186Z,101060.02
2019-02-06T15:51:32.320Z,101056.67
2019-02-06T15:54:38.899Z,101055.45
2019-02-06T15:57:23.839Z,101060.87
2019-02-06T16:00:18.546Z,101057.13
2019-02-06T16:03:38.185Z,101061.36
2019-02-06T16:06:34.411Z,101055.64
2019-02-06T16:09:45.103Z,101060.09
2019-02-06T16:12:53.352Z,101057.48
2019-02-06T16:15:44.421Z,101052.38
2019-02-06T16:18:24.161Z,101062.88
2019-02-06T16:21:16.763Z,101056.99
2019-02-06T16:24:22.116Z,101052.36
2019-02-06T16:27:17.873Z,101045.36
2019-02-06T16:30:28.260Z,101048.27
2019-02-06T16:33:28.856Z,101049.48
2019-02-06T16:36:48.441Z,101049.03
2019-02-06T16:39:57.359Z,101039.78
2019-02-06T16:43:00.593Z,101037.14
2019-02-06T16:46:18.500Z,101033.17
2019-02-06T16:49:32.003Z,101039.43
2019-02-06T16:52:16.426Z,101037.57
2019-02-06T16:55:11.304Z,101039.98
2019-02-06T16:58:20.912Z,101029.28
2019-02-06T17:01:44.168Z,101030.03
2019-02-06T17:04:29.321Z,101033.38
2019-02-06T17:07:50.007Z,101040.33
2019-02-06T17:11:20.120Z,101040.66
2019-02-06T17:14:40.879Z,101036.69
2019-02-06T17:18:00.868Z,101034.59
2019-02-06T17:21:05.985Z,101031.32
2019-02-06T17:23:58.240Z,101035.23
2019-02-06T17:27:25.225Z,101032.12
2019-02-06T17:30:21.673Z,101027.47
2019-02-06T17:33:33.522Z,101030.56
2019-02-06T17:36:23.365Z,101036.91
2019-02-06T17:39:23.846Z,101037.48
2019-02-06T17:42:21.693Z,101037.64
2019-02-06T17:45:25.386Z,101031.89
2019-02-06T17:48:09.560Z,101024.69
2019-02-06T17:51:26.737Z,101014.70
2019-02-06T17:54:09.675Z,101028.41
2019-02-06T17:56:36.400Z,101029.01
2019-02-06T17:59:04.907Z,101030.84
2019-02-06T18:01:40.376Z,101032.45
2019-02-06T18:04:16.748Z,101028.75
2019-02-06T18:06:44.759Z,101019.52
2019-02-06T18:09:15.835Z,101015.44
2019-02-06T18:11:42.536Z,101006.03
2019-02-06T18:14:09.236Z,101004.22
2019-02-06T18:16:35.973Z,100995.89
2019-02-06T18:19:02.770Z,100998.65
2019-02-06T18:21:29.638Z,100985.11
2019-02-06T18:23:56.374Z,100977.59
2019-02-06T18:26:23.075Z,100979.89
2019-02-06T18:28:50.085Z,100984.81
2019-02-06T18:31:16.793Z,100981.89
2019-02-06T18:33:43.481Z,100974.20
2019-02-06T18:36:10.241Z,100985.91
2019-02-06T18:38:46.233Z,100993.57
2019-02-06T18:41:07.461Z,100989.47
2019-02-06T18:43:34.184Z,100983.72
2019-02-06T18:46:02.120Z,100977.23
2019-02-06T18:48:28.857Z,100967.69
2019-02-06T18:50:56.077Z,100970.70
2019-02-06T18:53:22.777Z,100980.61
2019-02-06T18:55:51.319Z,100978.23
2019-02-06T18:58:18.193Z,100979.28
2019-02-06T19:00:45.245Z,100972.05
2019-02-06T19:03:18.110Z,100966.16
2019-02-06T19:05:45.036Z,100967.05
2019-02-06T19:08:11.940Z,100967.69
2019-02-06T19:10:38.682Z,100971.52
2019-02-06T19:13:05.779Z,100965.38
2019-02-06T19:15:32.501Z,100962.83
2019-02-06T19:17:59.253Z,100964.11
2019-02-06T19:20:25.944Z,100954.25
2019-02-06T19:22:53.730Z,100948.66
2019-02-06T19:25:20.439Z,100940.80
2019-02-06T19:27:47.136Z,100930.20
2019-02-06T19:30:25.201Z,100920.83
2019-02-06T19:32:52.197Z,100915.83
2019-02-06T19:35:18.907Z,100915.83
2019-02-06T19:37:48.309Z,100914.39
2019-02-06T19:40:14.500Z,100908.19
2019-02-06T19:42:41.544Z,100906.33
2019-02-06T19:45:08.626Z,100908.70
2019-02-06T19:47:35.745Z,100906.28
2019-02-06T19:50:04.245Z,100906.11
2019-02-06T19:52:31.591Z,100901.55
2019-02-06T19:54:58.580Z,100902.55
2019-02-06T19:57:26.073Z,100899.52
2019-02-06T19:59:52.874Z,100902.88
2019-02-06T20:02:19.574Z,100905.44
2019-02-06T20:04:46.297Z,100909.64
2019-02-06T20:07:12.997Z,100905.70
2019-02-06T20:09:39.792Z,100897.34
2019-02-06T20:12:06.527Z,100903.57
2019-02-06T20:14:33.261Z,100901.52
2019-02-06T20:17:00.452Z,100901.05
2019-02-06T20:19:27.159Z,100889.46
2019-02-06T20:21:53.882Z,100895.48
2019-02-06T20:24:20.582Z,100889.95
2019-02-06T20:26:47.291Z,100896.12
2019-02-06T20:29:14.000Z,100881.80
2019-02-06T20:31:40.798Z,100873.11
2019-02-06T20:34:07.546Z,100873.48
2019-02-06T20:36:34.273Z,100877.47
2019-02-06T20:39:01.393Z,100877.44
2019-02-06T20:41:30.023Z,100872.55
2019-02-06T20:43:56.738Z,100868.52
2019-02-06T20:46:23.448Z,100866.12
2019-02-06T20:48:50.386Z,100867.69
2019-02-06T20:51:17.075Z,100872.98
2019-02-06T20:53:43.800Z,100861.83
2019-02-06T20:56:10.522Z,100856.40
2019-02-06T20:58:39.147Z,100844.61
2019-02-06T21:01:06.251Z,100841.78
2019-02-06T21:03:32.969Z,100842.16
2019-02-06T21:05:59.673Z,100837.48
2019-02-06T21:08:26.399Z,100845.84
2019-02-06T21:10:53.113Z,100849.64
2019-02-06T21:13:19.810Z,100848.55
2019-02-06T21:15:46.524Z,100844.52
2019-02-06T21:18:13.233Z,100842.61
2019-02-06T21:20:40.342Z,100838.36
2019-02-06T21:23:07.052Z,100838.69
2019-02-06T21:25:33.764Z,100835.33
2019-02-06T21:28:00.602Z,100830.59
2019-02-06T21:30:29.463Z,100832.63
2019-02-06T21:32:56.272Z,100831.70
2019-02-06T21:35:22.957Z,100828.53
2019-02-06T21:37:49.711Z,100831.20
2019-02-06T21:40:20.274Z,100818.28
2019-02-06T21:42:47.098Z,100825.11
2019-02-06T21:45:13.791Z,100827.50
2019-02-06T21:47:40.508Z,100822.64
2019-02-06T21:50:09.184Z,100817.02
2019-02-06T21:52:35.916Z,100807.06
2019-02-06T21:55:03.517Z,100813.25
2019-02-06T21:57:30.848Z,100810.71
2019-02-06T21:59:57.569Z,100808.91
2019-02-06T22:02:24.272Z,100801.92
2019-02-06T22:04:50.998Z,100799.13
2019-02-06T22:07:19.186Z,100793.08
2019-02-06T22:09:45.905Z,100783.47
2019-02-06T22:12:12.631Z,100774.44
2019-02-06T22:14:39.727Z,100767.48
2019-02-06T22:17:06.436Z,100770.98
2019-02-06T22:19:33.116Z,100767.12
2019-02-06T22:21:59.905Z,100764.25
2019-02-06T22:24:26.649Z,100760.38
2019-02-06T22:26:53.337Z,100754.42
2019-02-06T22:29:20.030Z,100750.86
2019-02-06T22:31:46.760Z,100747.15
2019-02-06T22:34:13.659Z,100753.58
2019-02-06T22:36:40.355Z,100758.23
2019-02-06T22:39:10.117Z,100759.89
2019-02-06T22:41:37.521Z,100752.19
2019-02-06T22:44:06.555Z,100746.45
2019-02-06T22:46:33.080Z,100745.36
2019-02-06T22:49:00.866Z,100744.44
2019-02-06T22:51:27.881Z,100747.22
2019-02-06T22:53:55.490Z,100745.82
2019-02-06T22:56:22.288Z,100745.52
2019-02-06T22:58:49.101Z,100743.86
2019-02-06T23:01:35.280Z,100749.92
2019-02-06T23:04:02.381Z,100745.98
2019-02-06T23:06:29.054Z,100743.04
2019-02-06T23:08:55.804Z,100735.41
2019-02-06T23:11:22.501Z,100734.73
2019-02-06T23:13:49.517Z,100726.61
2019-02-06T23:16:16.310Z,100723.30
2019-02-06T23:18:42.980Z,100720.69
2019-02-06T23:21:09.683Z,100712.66
2019-02-06T23:23:37.058Z,100709.28
2019-02-06T23:26:03.952Z,100705.99
2019-02-06T23:28:30.681Z,100704.14
